createdAt,value
2018-09-05T00:01:37.336Z,18.61
2018-09-05T00:04:07.077Z,18.55
2018-09-05T00:06:36.807Z,18.53
2018-09-05T00:09:07.516Z,18.28
2018-09-05T00:11:37.760Z,18.19
2018-09-05T00:14:07.741Z,18.10
2018-09-05T00:16:37.505Z,17.95
2018-09-05T00:19:07.272Z,17.86
2018-09-05T00:21:36.956Z,17.89
2018-09-05T00:24:06.725Z,17.80
2018-09-05T00:26:36.407Z,17.72
2018-09-05T00:29:06.112Z,17.58
2018-09-05T00:31:35.796Z,17.53
2018-09-05T00:34:05.560Z,17.57
2018-09-05T00:36:35.224Z,17.57
2018-09-05T00:39:06.696Z,17.67
2018-09-05T00:41:36.468Z,17.54
2018-09-05T00:44:06.365Z,17.69
2018-09-05T00:46:36.127Z,17.79
2018-09-05T00:49:05.887Z,17.75
2018-09-05T00:51:35.604Z,17.76
2018-09-05T00:54:05.364Z,17.72
2018-09-05T00:56:35.076Z,17.65
2018-09-05T00:59:04.800Z,17.63
2018-09-05T01:01:34.532Z,17.44
2018-09-05T01:04:04.250Z,17.52
2018-09-05T01:06:34.133Z,17.51
2018-09-05T01:09:04.321Z,17.48
2018-09-05T01:11:34.009Z,17.53
2018-09-05T01:14:03.739Z,17.40
2018-09-05T01:16:33.421Z,17.30
2018-09-05T01:19:03.424Z,17.30
2018-09-05T01:21:33.124Z,17.36
2018-09-05T01:24:02.848Z,17.37
2018-09-05T01:26:32.597Z,17.26
2018-09-05T01:29:02.274Z,17.25
2018-09-05T01:31:32.088Z,17.23
2018-09-05T01:34:01.782Z,17.26
2018-09-05T01:36:31.485Z,17.10
2018-09-05T01:39:01.224Z,17.17
2018-09-05T01:41:30.922Z,17.08
2018-09-05T01:44:00.665Z,17.06
2018-09-05T01:46:30.401Z,16.93
2018-09-05T01:49:00.072Z,17.02
2018-09-05T01:51:33.212Z,16.99
2018-09-05T01:54:03.460Z,16.89
2018-09-05T01:56:33.165Z,16.82
2018-09-05T01:59:02.882Z,16.74
2018-09-05T02:01:32.585Z,16.73
2018-09-05T02:04:02.641Z,16.80
2018-09-05T02:06:32.306Z,16.80
2018-09-05T02:09:02.028Z,16.80
2018-09-05T02:11:31.768Z,16.77
2018-09-05T02:14:01.469Z,16.70
2018-09-05T02:16:31.171Z,16.66
2018-09-05T02:19:00.825Z,16.43
2018-09-05T02:21:30.553Z,16.19
2018-09-05T02:24:00.245Z,15.95
2018-09-05T02:26:29.968Z,15.91
2018-09-05T02:28:59.668Z,16.01
2018-09-05T02:31:29.560Z,16.18
2018-09-05T02:33:59.322Z,16.25
2018-09-05T02:36:29.022Z,16.13
2018-09-05T02:38:58.678Z,15.90
2018-09-05T02:41:28.404Z,15.78
2018-09-05T02:44:03.380Z,15.81
2018-09-05T02:46:33.452Z,15.75
2018-09-05T02:49:03.116Z,15.73
2018-09-05T02:51:32.781Z,15.90
2018-09-05T02:54:02.502Z,15.94
2018-09-05T02:56:32.149Z,15.96
2018-09-05T02:59:01.848Z,15.99
2018-09-05T03:01:31.520Z,15.85
2018-09-05T03:04:01.215Z,15.59
2018-09-05T03:06:30.937Z,15.59
2018-09-05T03:09:00.644Z,15.62
2018-09-05T03:11:30.300Z,15.61
2018-09-05T03:14:00.004Z,15.56
2018-09-05T03:16:29.698Z,15.66
2018-09-05T03:18:59.434Z,15.73
2018-09-05T03:21:29.168Z,15.72
2018-09-05T03:23:58.844Z,15.67
2018-09-05T03:26:28.588Z,15.68
2018-09-05T03:28:58.277Z,15.67
2018-09-05T03:31:27.945Z,15.64
2018-09-05T03:33:57.632Z,15.54
2018-09-05T03:36:27.320Z,15.50
2018-09-05T03:38:57.158Z,15.41
2018-09-05T03:41:26.817Z,15.23
2018-09-05T03:43:56.504Z,15.28
2018-09-05T03:46:26.209Z,15.33
2018-09-05T03:48:55.876Z,15.37
2018-09-05T03:51:25.600Z,15.09
2018-09-05T03:53:55.272Z,15.19
2018-09-05T03:56:24.934Z,15.20
2018-09-05T03:58:54.640Z,15.22
2018-09-05T04:01:24.372Z,15.21
2018-09-05T04:03:54.048Z,15.30
2018-09-05T04:06:23.728Z,15.46
2018-09-05T04:09:27.776Z,15.56
2018-09-05T04:11:57.476Z,15.43
2018-09-05T04:14:27.193Z,15.22
2018-09-05T04:16:56.856Z,15.02
2018-09-05T04:19:26.560Z,15.07
2018-09-05T04:21:56.281Z,15.12
2018-09-05T04:24:25.947Z,15.10
2018-09-05T04:26:55.672Z,15.23
2018-09-05T04:29:25.378Z,15.25
2018-09-05T04:31:55.157Z,15.24
2018-09-05T04:34:24.849Z,15.32
2018-09-05T04:36:54.553Z,15.39
2018-09-05T04:39:24.405Z,15.47
2018-09-05T04:41:54.179Z,15.50
2018-09-05T04:44:23.892Z,15.47
2018-09-05T04:46:53.609Z,15.48
2018-09-05T04:49:23.693Z,15.47
2018-09-05T04:51:53.349Z,15.47
2018-09-05T04:54:23.040Z,15.51
2018-09-05T04:56:52.744Z,15.48
2018-09-05T04:59:22.468Z,15.47
2018-09-05T05:01:52.162Z,15.46
2018-09-05T05:04:21.899Z,15.48
2018-09-05T05:06:51.602Z,15.52
2018-09-05T05:09:21.317Z,15.50
2018-09-05T05:11:51.003Z,15.52
2018-09-05T05:14:20.701Z,15.52
2018-09-05T05:16:50.379Z,15.55
2018-09-05T05:19:20.072Z,15.47
2018-09-05T05:21:49.773Z,15.24
2018-09-05T05:24:19.492Z,15.25
2018-09-05T05:26:49.240Z,14.99
2018-09-05T05:29:18.937Z,15.09
2018-09-05T05:31:48.710Z,15.14
2018-09-05T05:34:19.147Z,15.43
2018-09-05T05:36:48.828Z,15.59
2018-09-05T05:39:18.626Z,15.75
2018-09-05T05:41:48.292Z,15.86
2018-09-05T05:44:17.980Z,15.78
2018-09-05T05:46:47.775Z,15.64
2018-09-05T05:49:17.498Z,15.44
2018-09-05T05:51:47.241Z,15.48
2018-09-05T05:54:16.940Z,15.44
2018-09-05T05:56:46.639Z,15.26
2018-09-05T05:59:16.377Z,15.29
2018-09-05T06:01:46.170Z,15.30
2018-09-05T06:04:15.860Z,15.55
2018-09-05T06:06:45.564Z,15.79
2018-09-05T06:09:15.297Z,16.01
2018-09-05T06:11:45.177Z,16.30
2018-09-05T06:14:14.854Z,16.47
2018-09-05T06:16:44.641Z,16.63
2018-09-05T06:19:14.344Z,16.70
2018-09-05T06:21:44.125Z,16.87
2018-09-05T06:24:13.868Z,16.96
2018-09-05T06:26:43.536Z,17.05
2018-09-05T06:29:13.305Z,17.13
2018-09-05T06:31:43.007Z,17.19
2018-09-05T06:34:12.778Z,17.18
2018-09-05T06:36:42.438Z,17.12
2018-09-05T06:39:12.174Z,17.19
2018-09-05T06:41:41.842Z,17.18
2018-09-05T06:44:11.536Z,17.16
2018-09-05T06:46:41.236Z,17.07
2018-09-05T06:49:10.944Z,17.20
2018-09-05T06:51:40.616Z,17.34
2018-09-05T06:54:10.304Z,17.50
2018-09-05T06:56:39.981Z,17.63
2018-09-05T06:59:09.712Z,17.69
2018-09-05T07:01:39.389Z,17.64
2018-09-05T07:04:09.097Z,17.73
2018-09-05T07:06:38.825Z,17.75
2018-09-05T07:09:11.084Z,17.99
2018-09-05T07:11:40.987Z,17.98
2018-09-05T07:14:10.781Z,17.96
2018-09-05T07:16:40.521Z,18.08
2018-09-05T07:19:11.379Z,18.17
2018-09-05T07:21:41.321Z,18.26
2018-09-05T07:24:11.010Z,18.40
2018-09-05T07:26:40.697Z,18.53
2018-09-05T07:29:10.393Z,18.59
2018-09-05T07:31:40.113Z,18.64
2018-09-05T07:34:09.785Z,18.76
2018-09-05T07:36:39.524Z,18.98
2018-09-05T07:39:10.441Z,19.12
2018-09-05T07:41:40.819Z,19.24
2018-09-05T07:44:10.507Z,19.36
2018-09-05T07:46:40.255Z,19.46
2018-09-05T07:49:10.400Z,19.61
2018-09-05T07:51:40.163Z,19.66
2018-09-05T07:54:09.846Z,19.81
2018-09-05T07:56:39.594Z,19.94
2018-09-05T07:59:09.388Z,20.13
2018-09-05T08:01:39.153Z,20.19
2018-09-05T08:04:09.328Z,20.26
2018-09-05T08:06:39.141Z,20.47
2018-09-05T08:09:10.955Z,20.61
2018-09-05T08:11:40.762Z,20.77
2018-09-05T08:14:10.846Z,20.88
2018-09-05T08:16:40.603Z,21.05
2018-09-05T08:19:10.285Z,21.21
2018-09-05T08:21:40.018Z,21.22
2018-09-05T08:24:09.744Z,21.37
2018-09-05T08:26:39.489Z,21.45
2018-09-05T08:29:09.198Z,21.55
2018-09-05T08:31:38.876Z,21.71
2018-09-05T08:34:08.617Z,21.78
2018-09-05T08:36:38.423Z,21.83
2018-09-05T08:39:11.881Z,21.91
2018-09-05T08:41:41.588Z,21.84
2018-09-05T08:44:11.444Z,21.97
2018-09-05T08:46:41.064Z,22.00
2018-09-05T08:49:10.785Z,22.05
2018-09-05T08:51:40.506Z,22.09
2018-09-05T08:54:10.196Z,22.21
2018-09-05T08:56:39.957Z,22.25
2018-09-05T08:59:09.719Z,22.30
2018-09-05T09:01:39.500Z,22.41
2018-09-05T09:04:09.196Z,22.43
2018-09-05T09:06:38.868Z,22.54
2018-09-05T09:09:10.281Z,22.60
2018-09-05T09:11:40.045Z,22.64
2018-09-05T09:14:10.651Z,22.76
2018-09-05T09:16:40.465Z,22.84
2018-09-05T09:19:10.158Z,22.81
2018-09-05T09:21:39.965Z,22.90
2018-09-05T09:24:10.157Z,22.88
2018-09-05T09:26:39.880Z,22.89
2018-09-05T09:29:09.558Z,22.97
2018-09-05T09:31:39.314Z,22.96
2018-09-05T09:34:09.056Z,23.09
2018-09-05T09:36:38.753Z,23.03
2018-09-05T09:39:10.156Z,23.09
2018-09-05T09:41:39.869Z,23.15
2018-09-05T09:44:09.564Z,23.17
2018-09-05T09:46:39.402Z,23.24
2018-09-05T09:49:09.136Z,23.35
2018-09-05T09:51:38.857Z,23.36
2018-09-05T09:54:08.544Z,23.42
2018-09-05T09:56:38.306Z,23.41
2018-09-05T09:59:07.960Z,23.51
2018-09-05T10:01:42.789Z,23.61
2018-09-05T10:05:20.637Z,23.72
2018-09-05T10:07:55.462Z,23.84
2018-09-05T10:10:30.431Z,23.97
2018-09-05T10:13:05.300Z,23.85
2018-09-05T10:15:40.280Z,23.81
2018-09-05T10:18:15.289Z,23.78
2018-09-05T10:20:45.050Z,23.98
2018-09-05T10:23:14.760Z,24.04
2018-09-05T10:25:44.446Z,24.11
2018-09-05T10:28:14.136Z,24.26
2018-09-05T10:30:43.820Z,24.32
2018-09-05T10:33:13.526Z,24.26
2018-09-05T10:35:43.235Z,24.32
2018-09-05T10:38:12.965Z,24.35
2018-09-05T10:40:42.652Z,24.42
2018-09-05T10:43:12.384Z,24.36
2018-09-05T10:45:42.074Z,24.48
2018-09-05T10:48:11.956Z,24.67
2018-09-05T10:50:41.651Z,24.61
2018-09-05T10:53:11.361Z,24.72
2018-09-05T10:55:41.097Z,24.48
2018-09-05T10:58:10.840Z,24.67
2018-09-05T11:00:40.510Z,24.99
2018-09-05T11:03:10.257Z,25.17
2018-09-05T11:05:39.988Z,25.07
2018-09-05T11:08:09.676Z,25.10
2018-09-05T11:10:39.396Z,25.26
2018-09-05T11:13:09.113Z,25.36
2018-09-05T11:15:38.807Z,25.34
2018-09-05T11:18:08.542Z,25.50
2018-09-05T11:20:38.327Z,25.45
2018-09-05T11:23:07.988Z,25.49
2018-09-05T11:25:37.744Z,25.50
2018-09-05T11:28:07.392Z,25.82
2018-09-05T11:30:37.192Z,26.05
2018-09-05T11:33:06.931Z,26.20
2018-09-05T11:35:36.611Z,26.41
2018-09-05T11:38:06.384Z,26.57
2018-09-05T11:40:36.125Z,26.27
2018-09-05T11:43:05.889Z,26.32
2018-09-05T11:45:35.600Z,26.46
2018-09-05T11:48:05.343Z,26.73
2018-09-05T11:50:35.060Z,26.87
2018-09-05T11:53:04.720Z,26.82
2018-09-05T11:55:34.407Z,26.82
2018-09-05T11:58:04.196Z,26.86
2018-09-05T12:00:33.908Z,26.82
2018-09-05T12:03:03.560Z,26.87
2018-09-05T12:05:33.260Z,26.99
2018-09-05T12:08:02.925Z,27.03
2018-09-05T12:10:33.272Z,26.89
2018-09-05T12:13:02.953Z,27.10
2018-09-05T12:15:32.668Z,27.12
2018-09-05T12:18:02.384Z,26.96
2018-09-05T12:20:32.088Z,26.75
2018-09-05T12:23:01.776Z,26.86
2018-09-05T12:25:31.572Z,26.86
2018-09-05T12:28:01.277Z,27.02
2018-09-05T12:30:30.936Z,27.24
2018-09-05T12:33:00.664Z,27.51
2018-09-05T12:35:30.356Z,27.71
2018-09-05T12:38:00.056Z,27.82
2018-09-05T12:40:29.727Z,27.85
2018-09-05T12:42:59.398Z,27.84
2018-09-05T12:45:29.168Z,27.83
2018-09-05T12:47:58.896Z,27.76
2018-09-05T12:50:28.591Z,27.99
2018-09-05T12:52:58.317Z,28.02
2018-09-05T12:55:27.976Z,28.02
2018-09-05T12:57:57.635Z,27.88
2018-09-05T13:00:27.641Z,27.93
2018-09-05T13:02:57.312Z,28.09
2018-09-05T13:05:27.053Z,28.12
2018-09-05T13:07:56.770Z,28.30
2018-09-05T13:10:26.468Z,28.39
2018-09-05T13:12:56.151Z,28.42
2018-09-05T13:15:25.844Z,28.35
2018-09-05T13:17:55.535Z,28.54
2018-09-05T13:20:25.229Z,28.58
2018-09-05T13:22:55.010Z,28.33
2018-09-05T13:25:24.699Z,28.27
2018-09-05T13:27:54.401Z,28.33
2018-09-05T13:30:24.084Z,28.40
2018-09-05T13:32:53.753Z,28.47
2018-09-05T13:35:23.541Z,28.53
2018-09-05T13:37:53.188Z,28.60
2018-09-05T13:40:22.844Z,28.76
2018-09-05T13:42:52.543Z,28.70
2018-09-05T13:45:22.236Z,28.96
2018-09-05T13:47:51.935Z,28.78
2018-09-05T13:50:21.660Z,28.67
2018-09-05T13:52:51.308Z,28.62
2018-09-05T13:55:21.016Z,28.66
2018-09-05T13:57:50.710Z,28.69
2018-09-05T14:00:20.428Z,28.87
2018-09-05T14:02:50.158Z,28.99
2018-09-05T14:05:19.837Z,29.09
2018-09-05T14:07:49.520Z,29.09
2018-09-05T14:10:19.193Z,29.09
2018-09-05T14:12:48.873Z,28.89
2018-09-05T14:15:18.542Z,28.75
2018-09-05T14:17:48.256Z,28.83
2018-09-05T14:20:17.998Z,28.91
2018-09-05T14:22:47.697Z,28.84
2018-09-05T14:25:17.445Z,28.52
2018-09-05T14:27:47.132Z,28.28
2018-09-05T14:30:16.815Z,27.95
2018-09-05T14:32:46.501Z,28.07
2018-09-05T14:35:16.181Z,27.86
2018-09-05T14:37:45.893Z,27.64
2018-09-05T14:40:15.557Z,27.37
2018-09-05T14:42:45.280Z,27.23
2018-09-05T14:45:14.950Z,27.01
2018-09-05T14:47:44.590Z,26.95
2018-09-05T14:50:14.288Z,26.85
2018-09-05T14:52:43.987Z,26.81
2018-09-05T14:55:13.656Z,26.68
2018-09-05T14:57:43.369Z,26.49
2018-09-05T15:00:13.069Z,26.48
2018-09-05T15:02:42.728Z,26.46
2018-09-05T15:05:12.444Z,26.36
2018-09-05T15:07:46.200Z,26.25
2018-09-05T15:10:15.956Z,26.22
2018-09-05T15:12:46.052Z,26.20
2018-09-05T15:15:16.404Z,26.12
2018-09-05T15:17:46.155Z,26.06
2018-09-05T15:20:15.844Z,26.02
2018-09-05T15:22:45.520Z,26.05
2018-09-05T15:25:15.244Z,26.01
2018-09-05T15:27:44.948Z,25.98
2018-09-05T15:30:14.683Z,26.03
2018-09-05T15:32:44.371Z,25.96
2018-09-05T15:35:14.049Z,25.89
2018-09-05T15:37:43.795Z,25.91
2018-09-05T15:40:13.530Z,25.90
2018-09-05T15:42:43.245Z,25.83
2018-09-05T15:45:12.888Z,25.88
2018-09-05T15:47:42.622Z,25.84
2018-09-05T15:50:12.441Z,25.81
2018-09-05T15:52:42.120Z,25.75
2018-09-05T15:55:14.176Z,25.72
2018-09-05T15:57:44.981Z,25.74
2018-09-05T16:00:14.715Z,25.75
2018-09-05T16:02:44.453Z,25.75
2018-09-05T16:05:14.148Z,25.69
2018-09-05T16:07:43.840Z,25.52
2018-09-05T16:10:13.552Z,25.38
2018-09-05T16:12:43.307Z,25.28
2018-09-05T16:15:13.080Z,25.29
2018-09-05T16:17:42.735Z,25.22
2018-09-05T16:20:12.456Z,25.23
2018-09-05T16:22:42.144Z,25.22
2018-09-05T16:25:11.885Z,25.12
2018-09-05T16:27:41.568Z,25.02
2018-09-05T16:30:11.316Z,25.00
2018-09-05T16:32:40.992Z,25.00
2018-09-05T16:35:10.704Z,24.95
2018-09-05T16:37:40.388Z,24.88
2018-09-05T16:40:10.112Z,24.87
2018-09-05T16:42:39.779Z,24.84
2018-09-05T16:45:09.590Z,24.86
2018-09-05T16:47:39.266Z,24.86
2018-09-05T16:50:08.988Z,24.87
2018-09-05T16:52:38.677Z,24.81
2018-09-05T16:55:08.360Z,24.75
2018-09-05T16:57:38.041Z,24.72
2018-09-05T17:00:07.960Z,24.71
2018-09-05T17:02:37.602Z,24.66
2018-09-05T17:05:07.362Z,24.61
2018-09-05T17:07:37.096Z,24.59
2018-09-05T17:10:06.860Z,24.52
2018-09-05T17:12:36.593Z,24.45
2018-09-05T17:15:06.317Z,24.38
2018-09-05T17:17:36.022Z,24.33
2018-09-05T17:20:05.780Z,24.29
2018-09-05T17:22:35.522Z,24.23
2018-09-05T17:25:05.290Z,24.20
2018-09-05T17:27:34.954Z,24.08
2018-09-05T17:30:05.073Z,24.07
2018-09-05T17:32:34.745Z,24.05
2018-09-05T17:35:04.503Z,24.00
2018-09-05T17:37:34.198Z,23.93
2018-09-05T17:40:03.900Z,23.83
2018-09-05T17:42:33.577Z,23.78
2018-09-05T17:45:03.314Z,23.78
2018-09-05T17:47:32.972Z,23.73
2018-09-05T17:50:02.774Z,23.69
2018-09-05T17:52:32.477Z,23.58
2018-09-05T17:55:02.136Z,23.55
2018-09-05T17:57:31.770Z,23.47
2018-09-05T18:00:01.472Z,23.41
2018-09-05T18:02:31.220Z,23.33
2018-09-05T18:05:00.877Z,23.26
2018-09-05T18:07:30.580Z,23.23
2018-09-05T18:10:00.261Z,23.19
2018-09-05T18:12:29.932Z,23.16
2018-09-05T18:14:59.632Z,23.06
2018-09-05T18:17:29.272Z,22.97
2018-09-05T18:19:58.959Z,22.93
2018-09-05T18:22:28.672Z,22.86
2018-09-05T18:24:58.454Z,22.82
2018-09-05T18:27:28.152Z,22.79
2018-09-05T18:29:57.819Z,22.64
2018-09-05T18:32:27.447Z,22.64
2018-09-05T18:34:57.144Z,22.64
2018-09-05T18:37:26.864Z,22.57
2018-09-05T18:39:56.516Z,22.51
2018-09-05T18:42:26.224Z,22.51
2018-09-05T18:44:55.903Z,22.40
2018-09-05T18:47:25.584Z,22.40
2018-09-05T18:49:55.335Z,22.42
2018-09-05T18:52:25.001Z,22.37
2018-09-05T18:54:54.699Z,22.36
2018-09-05T18:57:24.716Z,22.29
2018-09-05T18:59:54.383Z,22.23
2018-09-05T19:02:24.252Z,22.20
2018-09-05T19:04:53.981Z,22.18
2018-09-05T19:07:23.636Z,22.13
2018-09-05T19:09:53.596Z,22.03
2018-09-05T19:12:23.235Z,21.94
2018-09-05T19:14:52.921Z,21.94
2018-09-05T19:17:22.624Z,21.90
2018-09-05T19:19:52.289Z,21.92
2018-09-05T19:22:21.990Z,21.85
2018-09-05T19:24:51.985Z,21.80
2018-09-05T19:27:21.671Z,21.78
2018-09-05T19:29:51.665Z,21.76
2018-09-05T19:32:21.341Z,21.69
2018-09-05T19:34:51.012Z,21.59
2018-09-05T19:37:20.693Z,21.55
2018-09-05T19:39:50.389Z,21.52
2018-09-05T19:42:20.175Z,21.50
2018-09-05T19:44:49.833Z,21.47
2018-09-05T19:47:19.572Z,21.35
2018-09-05T19:49:49.377Z,21.38
2018-09-05T19:52:19.131Z,21.32
2018-09-05T19:54:48.918Z,21.30
2018-09-05T19:57:18.709Z,21.26
2018-09-05T19:59:48.407Z,21.24
2018-09-05T20:02:18.104Z,21.25
2018-09-05T20:04:47.783Z,21.21
2018-09-05T20:07:17.469Z,21.19
2018-09-05T20:09:47.204Z,21.10
2018-09-05T20:12:16.940Z,21.09
2018-09-05T20:14:46.656Z,21.02
2018-09-05T20:17:16.369Z,21.05
2018-09-05T20:19:46.157Z,21.01
2018-09-05T20:22:15.849Z,20.99
2018-09-05T20:24:45.594Z,20.95
2018-09-05T20:27:15.280Z,20.88
2018-09-05T20:29:45.001Z,20.86
2018-09-05T20:32:14.727Z,20.75
2018-09-05T20:34:44.384Z,20.67
2018-09-05T20:37:14.064Z,20.65
2018-09-05T20:39:43.720Z,20.63
2018-09-05T20:42:13.428Z,20.63
2018-09-05T20:44:43.112Z,20.64
2018-09-05T20:47:12.772Z,20.57
2018-09-05T20:49:42.468Z,20.57
2018-09-05T20:52:12.218Z,20.52
2018-09-05T20:54:41.852Z,20.44
2018-09-05T20:57:11.564Z,20.42
2018-09-05T20:59:41.235Z,20.39
2018-09-05T21:02:10.912Z,20.37
2018-09-05T21:04:40.635Z,20.18
2018-09-05T21:07:10.376Z,20.21
2018-09-05T21:09:40.072Z,20.20
2018-09-05T21:12:09.765Z,20.13
2018-09-05T21:14:39.436Z,20.07
2018-09-05T21:17:09.128Z,20.04
2018-09-05T21:19:38.771Z,20.10
2018-09-05T21:22:08.463Z,20.10
2018-09-05T21:24:38.136Z,20.01
2018-09-05T21:27:07.816Z,19.95
2018-09-05T21:29:37.797Z,19.91
2018-09-05T21:32:07.492Z,19.86
2018-09-05T21:34:37.375Z,19.69
2018-09-05T21:37:07.120Z,19.66
2018-09-05T21:39:36.772Z,19.69
2018-09-05T21:42:06.470Z,19.66
2018-09-05T21:44:36.136Z,19.69
2018-09-05T21:47:05.845Z,19.66
2018-09-05T21:49:35.496Z,19.63
2018-09-05T21:52:05.268Z,19.60
2018-09-05T21:54:34.971Z,19.55
2018-09-05T21:57:04.672Z,19.42
2018-09-05T21:59:34.440Z,19.38
2018-09-05T22:02:04.140Z,19.25
2018-09-05T22:04:33.817Z,19.20
2018-09-05T22:07:03.517Z,19.08
2018-09-05T22:09:33.220Z,18.92
2018-09-05T22:12:02.847Z,18.83
2018-09-05T22:14:32.544Z,18.70
2018-09-05T22:17:02.331Z,18.81
2018-09-05T22:19:32.000Z,18.80
2018-09-05T22:22:01.728Z,18.87
2018-09-05T22:24:31.385Z,18.86
2018-09-05T22:27:01.248Z,18.83
2018-09-05T22:29:30.909Z,18.82
2018-09-05T22:32:00.559Z,18.67
2018-09-05T22:34:30.277Z,18.72
2018-09-05T22:36:59.949Z,18.61
2018-09-05T22:39:29.609Z,18.52
2018-09-05T22:41:59.291Z,18.50
2018-09-05T22:44:39.913Z,18.57
2018-09-05T22:47:20.708Z,18.51
2018-09-05T22:51:08.209Z,18.50
2018-09-05T22:56:04.656Z,18.34
2018-09-05T22:59:46.069Z,18.20
2018-09-05T23:03:28.649Z,18.10
2018-09-05T23:06:24.905Z,18.01
2018-09-05T23:08:54.636Z,17.99
2018-09-05T23:12:00.609Z,17.99
2018-09-05T23:14:41.713Z,17.96
2018-09-05T23:17:22.740Z,17.95
2018-09-05T23:22:10.675Z,17.90
2018-09-05T23:24:40.366Z,17.96
2018-09-05T23:27:10.062Z,17.93
2018-09-05T23:29:39.730Z,17.95
2018-09-05T23:32:09.428Z,17.96
2018-09-05T23:34:39.107Z,18.00
2018-09-05T23:37:08.860Z,17.98
2018-09-05T23:39:38.549Z,17.96
2018-09-05T23:42:08.265Z,17.96
2018-09-05T23:44:37.921Z,17.94
2018-09-05T23:47:07.599Z,17.94
2018-09-05T23:49:37.309Z,17.90
2018-09-05T23:52:07.079Z,17.87
2018-09-05T23:54:36.765Z,17.90
2018-09-05T23:57:06.477Z,17.73
2018-09-05T23:59:36.153Z,17.73
